Dauntless Aviation
Airports Europe France
LFIY

St Jean d'Angély Airport

Moulins, FRANCE

Airport Info
Suggest Updated Information for this Airport

Location

Latitude / Longitude: 45°57'59"N / 0°31'31"W
  45°57.984'N / 0°31.518'W
  45.9664 / -0.5253

Runway Information

Runway 10 /28

Dimensions: 2789 x 164 ft.
Surface: U
 
Runway 10
Runway 28
Latitude: 45.966636 45.965728
Longitude: -0.528086 -0.518369
Elevation: 243 ft. 243 ft.
Runway true heading: 95.7 275.7
 

Instrument Procedures

IAPs (Instrument Approach Procedures)

  Visual Approach Chart
Satellite photo at:
Airport distance calculator
From:
Weather Reports

METAR

TAF

LFBG
20.0nm SE
TAF LFBG 201400Z 2015/2115 34015G25KT 9999 BKN020 TEMPO 2016/2022 5000 -RA BKN010 BECMG 2110/2112 CAVOK
LFBH
31.0nm W
TAF LFBH 201100Z 2012/2112 35012KT 9999 BKN020 PROB30 TEMPO 2018/2022 35015G30KT BECMG 2104/2106 05012KT BECMG 2109/2111 CAVOK
LFBU
34.5nm E
TAF AMD LFBU 201359Z 2013/2112 32012KT 9999 BKN025 TEMPO 2013/2104 4000 -RA BKN010 BECMG 2102/2104 05012KT BECMG 2110/2112 CAVOK
Safelog

 

Dauntless Aviation

© 2007-2018 Dauntless Aviation, all rights reserved
Information provided via PilotNav comes from a variety of official and unofficial data sources. As errors are possible, do not use PilotNav for primary flight planning purposes. Verify any information that you receive via PilotNav with current and canonical charts and other official documents. The material in this database is subject to database copyrights held by Dauntless Aviation and may not be copied without the express permission of Dauntless Aviation - licenses for use of part of all of this data are available for purchase; enquire via the Dauntless Aviation helpdesk. A number of mechanisms and markers exist in the database to protect against and identify infringement / copyright. Automated queries against this website are stictly prohibited, and all activity is logged and analyzed.